Shosei Maru — JJ4047 — position and weather

sailwx.info

Track history (hours):
 
Tides and Currents Weather Stations Pressure Air Temp Water Temp Dewpoint Dewpoint Depression Visibility Wind Speed Wind Dir Waves Ship Positions

Shosei Maru

Last reported at 2017-Oct-19 16:15 UTC. Time now 2017-Oct-19 23:47 UTC.
Position N 33°59' E 134°59'.

Length 105 m; draft 5.3 m.

Type: Tanker. MMSI: 431301658.

Date/timePositionNaut miles runAvg speedWind from/ knotsBaromVisibWave heightAir tempDewpointWater temp
2017-Oct-19 16:15N 33°59' E 134°59'313.4
2017-Oct-19 16:00N 34°02' E 134°59'713.3
2017-Oct-19 15:30N 34°09' E 134°58'713.9
2017-Oct-19 14:59N 34°16' E 134°59'713.2
2017-Oct-19 14:28N 34°23' E 135°01'613.4
2017-Oct-19 14:00N 34°28' E 135°04'713.1
2017-Oct-19 13:30N 34°31' E 135°12'713.2
2017-Oct-19 13:00N 34°33' E 135°19'510.1
2017-Oct-19 12:30N 34°33' E 135°25'0 0.2
2017-Oct-19 12:00N 34°33' E 135°25'1 0.1
2017-Oct-19 04:05N 34°34' E 135°26'0 0.2
2017-Oct-19 03:58N 34°34' E 135°26'1 3.0
2017-Oct-19 03:30N 34°33' E 135°24'5 9.6
2017-Oct-19 03:00N 34°33' E 135°19'0 0.1
2017-Oct-19 02:30N 34°32' E 135°19'0 0.0
2017-Oct-19 01:56N 34°32' E 135°19'0 0.0
2017-Oct-19 01:26N 34°32' E 135°19'0 0.0
2017-Oct-19 00:44N 34°32' E 135°19'0 0.0
2017-Oct-19 00:26N 34°32' E 135°19'0 0.0
2017-Oct-18 23:50N 34°32' E 135°19'0 0.1
2017-Oct-18 23:08N 34°32' E 135°19'0 0.0
2017-Oct-18 22:56N 34°32' E 135°19'0 0.0
2017-Oct-18 21:56N 34°32' E 135°19'0 0.0
2017-Oct-18 21:20N 34°32' E 135°19'0 0.0
2017-Oct-18 20:50N 34°32' E 135°19'0 0.0
2017-Oct-18 20:26N 34°32' E 135°19'0 0.0
2017-Oct-18 19:50N 34°32' E 135°19'0 0.0
2017-Oct-18 19:20N 34°32' E 135°19'0 0.0
2017-Oct-18 18:44N 34°32' E 135°19'0 0.0
2017-Oct-18 18:26N 34°32' E 135°19'0 0.0
2017-Oct-18 17:56N 34°32' E 135°19'0 0.0
2017-Oct-18 17:26N 34°32' E 135°19'0 0.0
2017-Oct-18 16:50N 34°32' E 135°19'0 0.0
2017-Oct-18 16:26N 34°32' E 135°19'0 0.0
2017-Oct-18 15:50N 34°32' E 135°19'0 0.0
2017-Oct-18 15:20N 34°32' E 135°19'0 0.0
2017-Oct-18 14:50N 34°32' E 135°19'0 0.0
2017-Oct-18 13:44N 34°32' E 135°19'0 0.0
2017-Oct-18 13:26N 34°32' E 135°19'0 0.0
2017-Oct-18 12:56N 34°32' E 135°19'0 0.1
2017-Oct-18 12:26N 34°33' E 135°19'3 7.8
2017-Oct-18 12:00N 34°33' E 135°23'3 0.4
2017-Oct-18 04:09N 34°34' E 135°26'0 0.4
2017-Oct-18 03:59N 34°33' E 135°26'2 4.4
2017-Oct-18 03:30N 34°33' E 135°23'4 8.8
2017-Oct-18 03:01N 34°32' E 135°18'0 0.3
2017-Oct-18 02:31N 34°32' E 135°19'2 3.7
2017-Oct-18 02:00N 34°32' E 135°16'3 6.9
2017-Oct-18 01:30N 34°30' E 135°13'5 9.8
2017-Oct-18 01:01N 34°27' E 135°09'812.1
2017-Oct-18 00:22N 34°21' E 135°03'611.8
2017-Oct-17 23:49N 34°15' E 134°60'413.9
2017-Oct-17 23:30N 34°12' E 135°03'5 9.2
2017-Oct-17 23:00N 34°09' E 135°08'0 0.0
2017-Oct-17 22:27N 34°09' E 135°08'0 0.1
2017-Oct-17 22:00N 34°09' E 135°08'0 0.0
2017-Oct-17 21:30N 34°09' E 135°08'0 0.0
2017-Oct-17 21:00N 34°09' E 135°08'0 0.0
2017-Oct-17 20:30N 34°09' E 135°08'0 0.0
2017-Oct-17 20:00N 34°09' E 135°08'0 0.1
2017-Oct-17 19:27N 34°09' E 135°08'0 0.1
2017-Oct-17 19:00N 34°09' E 135°08'0 0.0
2017-Oct-17 18:24N 34°09' E 135°08'0 0.1
2017-Oct-17 18:00N 34°09' E 135°08'0 0.0
2017-Oct-17 17:27N 34°09' E 135°08'0 0.0
2017-Oct-17 16:54N 34°09' E 135°08'0 0.0
2017-Oct-17 16:27N 34°09' E 135°08'0 0.0
2017-Oct-17 15:57N 34°09' E 135°08'0 0.2
2017-Oct-17 15:30N 34°09' E 135°08'2 3.5
2017-Oct-17 14:53N 34°07' E 135°07'0 0.0
2017-Oct-17 14:29N 34°07' E 135°07'0 0.0
2017-Oct-17 13:59N 34°07' E 135°07'0 0.0
2017-Oct-17 13:23N 34°07' E 135°07'0 0.0
2017-Oct-17 12:05N 34°07' E 135°07'0 0.0
2017-Oct-17 11:59N 34°07' E 135°07'0 0.0
2017-Oct-17 11:23N 34°07' E 135°07'0 0.0
2017-Oct-17 10:56N 34°07' E 135°07'0 0.0
2017-Oct-17 09:47N 34°07' E 135°07'0 0.0
2017-Oct-17 09:26N 34°07' E 135°07'0 0.0
2017-Oct-17 07:25N 34°07' E 135°07'0 0.0
2017-Oct-17 06:58N 34°07' E 135°07'0 0.0
2017-Oct-17 05:57N 34°07' E 135°07'0 0.1
2017-Oct-17 05:30N 34°07' E 135°07'1 2.6
2017-Oct-17 05:01N 34°08' E 135°07'0 0.0
2017-Oct-17 04:31N 34°08' E 135°07'0 0.0
2017-Oct-17 03:57N 34°08' E 135°07'0 0.0
2017-Oct-17 03:16N 34°08' E 135°07'0 0.0
2017-Oct-17 03:00N 34°08' E 135°07'0 0.0
2017-Oct-17 02:24N 34°08' E 135°07'0 0.0
2017-Oct-17 01:54N 34°08' E 135°07'0 0.0
2017-Oct-17 01:30N 34°08' E 135°07'0 0.0
2017-Oct-17 01:00N 34°08' E 135°07'0 0.0
2017-Oct-17 00:24N 34°08' E 135°07'0 0.0
2017-Oct-17 00:00N 34°08' E 135°07'0 0.0
2017-Oct-16 23:30N 34°08' E 135°07'0 0.0
2017-Oct-16 23:00N 34°08' E 135°07'0 0.0
2017-Oct-16 22:30N 34°08' E 135°07'0 0.0
2017-Oct-16 22:00N 34°08' E 135°07'0 0.0
2017-Oct-16 21:30N 34°08' E 135°07'0 0.0
2017-Oct-16 21:00N 34°08' E 135°07'0 0.0
2017-Oct-16 20:30N 34°08' E 135°07'0 0.0
2017-Oct-16 20:00N 34°08' E 135°07'0 0.0
2017-Oct-16 19:31N 34°08' E 135°07'0 0.0
2017-Oct-16 19:01N 34°08' E 135°07'0 0.0
2017-Oct-16 18:30N 34°08' E 135°07'0 0.0
2017-Oct-16 18:00N 34°08' E 135°07'0 0.0
2017-Oct-16 17:18N 34°08' E 135°07'0 0.0
2017-Oct-16 17:00N 34°08' E 135°07'0 0.0
2017-Oct-16 16:31N 34°08' E 135°07'0 0.0
2017-Oct-16 16:00N 34°08' E 135°07'0 0.0
2017-Oct-16 15:30N 34°08' E 135°07'0 0.0
2017-Oct-16 14:58N 34°08' E 135°07'0 0.0
2017-Oct-16 14:00N 34°08' E 135°07'0 0.0
2017-Oct-16 13:31N 34°08' E 135°07'0 0.0
2017-Oct-16 13:01N 34°08' E 135°07'0 0.0
2017-Oct-16 12:30N 34°08' E 135°07'0 0.0
2017-Oct-16 11:57N 34°08' E 135°07'0 0.0
2017-Oct-16 11:31N 34°08' E 135°07'0 0.1
2017-Oct-16 11:00N 34°08' E 135°07'0 0.0
2017-Oct-16 10:30N 34°08' E 135°07'0 0.0
2017-Oct-16 10:00N 34°08' E 135°07'2 3.2
2017-Oct-16 09:30N 34°08' E 135°05'22111.7
2017-Oct-15 14:40N 34°55' E 139°27'913.0
2017-Oct-15 14:00N 35°01' E 139°34'715.0
2017-Oct-15 13:30N 35°06' E 139°41'815.0
2017-Oct-15 13:00N 35°12' E 139°46'612.8
2017-Oct-15 12:30N 35°19' E 139°44'613.0
2017-Oct-15 12:01N 35°25' E 139°43'611.6
2017-Oct-15 11:29N 35°30' E 139°47'0 0.6
2017-Oct-15 11:00N 35°31' E 139°47'0 0.0
2017-Oct-15 10:25N 35°31' E 139°47'0 0.0
2017-Oct-15 09:58N 35°31' E 139°47'0 0.0
2017-Oct-15 09:25N 35°31' E 139°47'0 0.0
2017-Oct-15 08:55N 35°31' E 139°47'0 0.0
2017-Oct-15 08:25N 35°31' E 139°47'0 0.0
2017-Oct-15 07:55N 35°31' E 139°47'0 0.0
2017-Oct-15 07:28N 35°31' E 139°47'0 0.0
2017-Oct-15 06:58N 35°31' E 139°47'0 0.0
2017-Oct-15 06:28N 35°31' E 139°47'0 0.0
2017-Oct-15 05:52N 35°31' E 139°47'0 0.0
2017-Oct-15 05:19N 35°31' E 139°47'0 0.0
2017-Oct-15 04:37N 35°31' E 139°47'0 0.0
2017-Oct-15 04:25N 35°31' E 139°47'0 0.0
2017-Oct-15 03:55N 35°31' E 139°47'0 0.0
2017-Oct-15 03:25N 35°31' E 139°47'0 0.0
2017-Oct-15 02:58N 35°31' E 139°47'0 0.0
2017-Oct-15 02:30N 35°31' E 139°47'0 0.0
2017-Oct-15 02:00N 35°31' E 139°47'0 0.0
2017-Oct-15 01:30N 35°31' E 139°47'0 0.0
2017-Oct-15 01:00N 35°31' E 139°47'0 0.0
2017-Oct-15 00:30N 35°31' E 139°47'0 0.0
2017-Oct-15 00:00N 35°31' E 139°47'0 0.0
2017-Oct-14 23:30N 35°31' E 139°47'0 0.0
2017-Oct-14 23:00N 35°31' E 139°47'0 0.0
2017-Oct-14 22:30N 35°31' E 139°47'1 1.5
2017-Oct-14 22:00N 35°30' E 139°46'3 5.4
2017-Oct-14 21:30N 35°29' E 139°43'4 7.9
2017-Oct-14 21:00N 35°26' E 139°45'2 3.2
2017-Oct-14 20:30N 35°24' E 139°45'0 0.0
2017-Oct-14 19:58N 35°24' E 139°45'0 0.0
2017-Oct-14 19:19N 35°24' E 139°45'0 0.0
2017-Oct-14 18:58N 35°24' E 139°45'0 0.0
2017-Oct-14 18:25N 35°24' E 139°45'0 0.0
2017-Oct-14 17:55N 35°24' E 139°45'0 0.0
2017-Oct-14 17:28N 35°24' E 139°45'0 0.0
2017-Oct-14 16:58N 35°24' E 139°45'0 0.0
2017-Oct-14 16:28N 35°24' E 139°45'0 0.1
2017-Oct-14 15:58N 35°24' E 139°45'0 0.1
2017-Oct-14 15:25N 35°24' E 139°45'0 0.0
2017-Oct-14 14:58N 35°24' E 139°45'0 0.0
2017-Oct-14 14:19N 35°24' E 139°45'0 0.0
2017-Oct-14 13:58N 35°24' E 139°45'0 0.0
2017-Oct-14 13:28N 35°24' E 139°45'0 0.0
2017-Oct-14 12:58N 35°24' E 139°45'1 1.1
2017-Oct-14 12:30N 35°24' E 139°45'612.0
2017-Oct-14 12:00N 35°30' E 139°47'2 3.7
2017-Oct-14 11:30N 35°30' E 139°45'0 0.0
2017-Oct-14 11:00N 35°30' E 139°45'0 0.0
2017-Oct-14 10:30N 35°30' E 139°45'0 0.0
2017-Oct-14 10:00N 35°30' E 139°45'0 0.0
2017-Oct-14 09:27N 35°30' E 139°45'0 0.0
2017-Oct-14 08:57N 35°30' E 139°45'0 0.0
2017-Oct-14 08:30N 35°30' E 139°45'0 0.0
2017-Oct-14 08:00N 35°30' E 139°45'0 0.0
2017-Oct-14 07:30N 35°30' E 139°45'0 0.1
2017-Oct-14 07:00N 35°30' E 139°45'2 3.4
2017-Oct-14 06:30N 35°29' E 139°43'2 4.6
2017-Oct-14 06:00N 35°27' E 139°44'4 8.0
2017-Oct-14 05:30N 35°29' E 139°49'510.4
2017-Oct-14 05:00N 35°30' E 139°55'2 0.2
2017-Oct-13 21:50N 35°32' E 139°56'2 0.2
2017-Oct-13 11:03N 35°33' E 139°54'211.4
2017-Oct-13 10:53N 35°32' E 139°52'512.4
2017-Oct-13 10:30N 35°30' E 139°46'1 1.6
2017-Oct-13 10:00N 35°30' E 139°45'0 0.0
2017-Oct-13 09:30N 35°30' E 139°45'0 0.0
2017-Oct-13 09:00N 35°30' E 139°45'0 0.0
2017-Oct-13 08:30N 35°30' E 139°45'0 0.0
2017-Oct-13 08:00N 35°30' E 139°45'0 0.0
2017-Oct-13 07:27N 35°30' E 139°45'0 0.0
2017-Oct-13 07:00N 35°30' E 139°45'0 0.0
2017-Oct-13 06:30N 35°30' E 139°45'0 0.0
2017-Oct-13 06:00N 35°30' E 139°45'2 3.7
2017-Oct-13 05:30N 35°29' E 139°43'2 4.9
2017-Oct-13 05:00N 35°27' E 139°44'3 6.0
2017-Oct-13 04:30N 35°28' E 139°47'610.7
2017-Oct-13 03:54N 35°31' E 139°54'5 0.9
2017-Oct-12 21:58N 35°29' E 140°01'5 9.3
2017-Oct-12 21:26N 35°31' E 139°55'2 0.2
2017-Oct-12 10:40N 35°33' E 139°54'0 0.3
2017-Oct-12 10:31N 35°33' E 139°54'0 0.1
2017-Oct-12 09:58N 35°33' E 139°54'0 0.0
2017-Oct-12 09:10N 35°33' E 139°54'0 0.0
2017-Oct-12 08:55N 35°33' E 139°54'0 0.0
2017-Oct-12 08:28N 35°33' E 139°54'0 0.0
2017-Oct-12 08:01N 35°33' E 139°54'6 0.1
2017-Oct-10 13:39N 35°30' E 139°48'1 3.4
2017-Oct-10 13:18N 35°31' E 139°46'0 0.0
2017-Oct-10 13:00N 35°31' E 139°46'0 0.0
2017-Oct-10 12:30N 35°31' E 139°46'0 0.0
2017-Oct-10 11:48N 35°31' E 139°46'0 0.0
2017-Oct-10 11:30N 35°31' E 139°46'0 0.0
2017-Oct-10 11:00N 35°31' E 139°46'0 0.0
2017-Oct-10 10:24N 35°31' E 139°46'0 0.0
2017-Oct-10 10:00N 35°31' E 139°46'0 0.0
2017-Oct-10 09:30N 35°31' E 139°46'0 0.0
2017-Oct-10 08:54N 35°31' E 139°46'0 0.0
2017-Oct-10 08:30N 35°31' E 139°46'0 0.0
2017-Oct-10 08:00N 35°31' E 139°46'0 0.0
2017-Oct-10 07:31N 35°31' E 139°46'0 0.0
2017-Oct-10 07:01N 35°31' E 139°46'0 0.0
2017-Oct-10 06:31N 35°31' E 139°46'0 0.0
2017-Oct-10 06:01N 35°31' E 139°46'1 2.8
2017-Oct-10 05:30N 35°30' E 139°45'3 6.5
2017-Oct-10 05:01N 35°27' E 139°43'3 5.8
2017-Oct-10 04:30N 35°26' E 139°46'4 7.2
2017-Oct-10 04:00N 35°22' E 139°45'510.4
2017-Oct-10 03:30N 35°17' E 139°45'510.6
2017-Oct-10 03:00N 35°12' E 139°47'612.5
2017-Oct-10 02:30N 35°06' E 139°45'613.0
2017-Oct-10 02:01N 35°02' E 139°39'713.9
2017-Oct-10 01:29N 34°57' E 139°32'  
Track history (hours):
 
Tides and Currents Weather Stations Pressure Air Temp Water Temp Dewpoint Dewpoint Depression Visibility Wind Speed Wind Dir Waves Ship Positions

Shosei Maru

Last reported at 2017-Oct-19 16:15 UTC. Time now 2017-Oct-19 23:47 UTC.
Position N 33°59' E 134°59'.

Length 105 m; draft 5.3 m.

Type: Tanker. MMSI: 431301658.

Date/timePositionNaut miles runAvg speedWind from/ knotsBaromVisibWave heightAir tempDewpointWater temp
2017-Oct-19 16:15N 33°59' E 134°59'313.4
2017-Oct-19 16:00N 34°02' E 134°59'713.3
2017-Oct-19 15:30N 34°09' E 134°58'713.9
2017-Oct-19 14:59N 34°16' E 134°59'713.2
2017-Oct-19 14:28N 34°23' E 135°01'613.4
2017-Oct-19 14:00N 34°28' E 135°04'713.1
2017-Oct-19 13:30N 34°31' E 135°12'713.2
2017-Oct-19 13:00N 34°33' E 135°19'510.1
2017-Oct-19 12:30N 34°33' E 135°25'0 0.2
2017-Oct-19 12:00N 34°33' E 135°25'1 0.1
2017-Oct-19 04:05N 34°34' E 135°26'0 0.2
2017-Oct-19 03:58N 34°34' E 135°26'1 3.0
2017-Oct-19 03:30N 34°33' E 135°24'5 9.6
2017-Oct-19 03:00N 34°33' E 135°19'0 0.1
2017-Oct-19 02:30N 34°32' E 135°19'0 0.0
2017-Oct-19 01:56N 34°32' E 135°19'0 0.0
2017-Oct-19 01:26N 34°32' E 135°19'0 0.0
2017-Oct-19 00:44N 34°32' E 135°19'0 0.0
2017-Oct-19 00:26N 34°32' E 135°19'0 0.0
2017-Oct-18 23:50N 34°32' E 135°19'0 0.1
2017-Oct-18 23:08N 34°32' E 135°19'0 0.0
2017-Oct-18 22:56N 34°32' E 135°19'0 0.0
2017-Oct-18 21:56N 34°32' E 135°19'0 0.0
2017-Oct-18 21:20N 34°32' E 135°19'0 0.0
2017-Oct-18 20:50N 34°32' E 135°19'0 0.0
2017-Oct-18 20:26N 34°32' E 135°19'0 0.0
2017-Oct-18 19:50N 34°32' E 135°19'0 0.0
2017-Oct-18 19:20N 34°32' E 135°19'0 0.0
2017-Oct-18 18:44N 34°32' E 135°19'0 0.0
2017-Oct-18 18:26N 34°32' E 135°19'0 0.0
2017-Oct-18 17:56N 34°32' E 135°19'0 0.0
2017-Oct-18 17:26N 34°32' E 135°19'0 0.0
2017-Oct-18 16:50N 34°32' E 135°19'0 0.0
2017-Oct-18 16:26N 34°32' E 135°19'0 0.0
2017-Oct-18 15:50N 34°32' E 135°19'0 0.0
2017-Oct-18 15:20N 34°32' E 135°19'0 0.0
2017-Oct-18 14:50N 34°32' E 135°19'0 0.0
2017-Oct-18 13:44N 34°32' E 135°19'0 0.0
2017-Oct-18 13:26N 34°32' E 135°19'0 0.0
2017-Oct-18 12:56N 34°32' E 135°19'0 0.1
2017-Oct-18 12:26N 34°33' E 135°19'3 7.8
2017-Oct-18 12:00N 34°33' E 135°23'3 0.4
2017-Oct-18 04:09N 34°34' E 135°26'0 0.4
2017-Oct-18 03:59N 34°33' E 135°26'2 4.4
2017-Oct-18 03:30N 34°33' E 135°23'4 8.8
2017-Oct-18 03:01N 34°32' E 135°18'0 0.3
2017-Oct-18 02:31N 34°32' E 135°19'2 3.7
2017-Oct-18 02:00N 34°32' E 135°16'3 6.9
2017-Oct-18 01:30N 34°30' E 135°13'5 9.8
2017-Oct-18 01:01N 34°27' E 135°09'812.1
2017-Oct-18 00:22N 34°21' E 135°03'611.8
2017-Oct-17 23:49N 34°15' E 134°60'413.9
2017-Oct-17 23:30N 34°12' E 135°03'5 9.2
2017-Oct-17 23:00N 34°09' E 135°08'0 0.0
2017-Oct-17 22:27N 34°09' E 135°08'0 0.1
2017-Oct-17 22:00N 34°09' E 135°08'0 0.0
2017-Oct-17 21:30N 34°09' E 135°08'0 0.0
2017-Oct-17 21:00N 34°09' E 135°08'0 0.0
2017-Oct-17 20:30N 34°09' E 135°08'0 0.0
2017-Oct-17 20:00N 34°09' E 135°08'0 0.1
2017-Oct-17 19:27N 34°09' E 135°08'0 0.1
2017-Oct-17 19:00N 34°09' E 135°08'0 0.0
2017-Oct-17 18:24N 34°09' E 135°08'0 0.1
2017-Oct-17 18:00N 34°09' E 135°08'0 0.0
2017-Oct-17 17:27N 34°09' E 135°08'0 0.0
2017-Oct-17 16:54N 34°09' E 135°08'0 0.0
2017-Oct-17 16:27N 34°09' E 135°08'0 0.0
2017-Oct-17 15:57N 34°09' E 135°08'0 0.2
2017-Oct-17 15:30N 34°09' E 135°08'2 3.5
2017-Oct-17 14:53N 34°07' E 135°07'0 0.0
2017-Oct-17 14:29N 34°07' E 135°07'0 0.0
2017-Oct-17 13:59N 34°07' E 135°07'0 0.0
2017-Oct-17 13:23N 34°07' E 135°07'0 0.0
2017-Oct-17 12:05N 34°07' E 135°07'0 0.0
2017-Oct-17 11:59N 34°07' E 135°07'0 0.0
2017-Oct-17 11:23N 34°07' E 135°07'0 0.0
2017-Oct-17 10:56N 34°07' E 135°07'0 0.0
2017-Oct-17 09:47N 34°07' E 135°07'0 0.0
2017-Oct-17 09:26N 34°07' E 135°07'0 0.0
2017-Oct-17 07:25N 34°07' E 135°07'0 0.0
2017-Oct-17 06:58N 34°07' E 135°07'0 0.0
2017-Oct-17 05:57N 34°07' E 135°07'0 0.1
2017-Oct-17 05:30N 34°07' E 135°07'1 2.6
2017-Oct-17 05:01N 34°08' E 135°07'0 0.0
2017-Oct-17 04:31N 34°08' E 135°07'0 0.0
2017-Oct-17 03:57N 34°08' E 135°07'0 0.0
2017-Oct-17 03:16N 34°08' E 135°07'0 0.0
2017-Oct-17 03:00N 34°08' E 135°07'0 0.0
2017-Oct-17 02:24N 34°08' E 135°07'0 0.0
2017-Oct-17 01:54N 34°08' E 135°07'0 0.0
2017-Oct-17 01:30N 34°08' E 135°07'0 0.0
2017-Oct-17 01:00N 34°08' E 135°07'0 0.0
2017-Oct-17 00:24N 34°08' E 135°07'0 0.0
2017-Oct-17 00:00N 34°08' E 135°07'0 0.0
2017-Oct-16 23:30N 34°08' E 135°07'0 0.0
2017-Oct-16 23:00N 34°08' E 135°07'0 0.0
2017-Oct-16 22:30N 34°08' E 135°07'0 0.0
2017-Oct-16 22:00N 34°08' E 135°07'0 0.0
2017-Oct-16 21:30N 34°08' E 135°07'0 0.0
2017-Oct-16 21:00N 34°08' E 135°07'0 0.0
2017-Oct-16 20:30N 34°08' E 135°07'0 0.0
2017-Oct-16 20:00N 34°08' E 135°07'0 0.0
2017-Oct-16 19:31N 34°08' E 135°07'0 0.0
2017-Oct-16 19:01N 34°08' E 135°07'0 0.0
2017-Oct-16 18:30N 34°08' E 135°07'0 0.0
2017-Oct-16 18:00N 34°08' E 135°07'0 0.0
2017-Oct-16 17:18N 34°08' E 135°07'0 0.0
2017-Oct-16 17:00N 34°08' E 135°07'0 0.0
2017-Oct-16 16:31N 34°08' E 135°07'0 0.0
2017-Oct-16 16:00N 34°08' E 135°07'0 0.0
2017-Oct-16 15:30N 34°08' E 135°07'0 0.0
2017-Oct-16 14:58N 34°08' E 135°07'0 0.0
2017-Oct-16 14:00N 34°08' E 135°07'0 0.0
2017-Oct-16 13:31N 34°08' E 135°07'0 0.0
2017-Oct-16 13:01N 34°08' E 135°07'0 0.0
2017-Oct-16 12:30N 34°08' E 135°07'0 0.0
2017-Oct-16 11:57N 34°08' E 135°07'0 0.0
2017-Oct-16 11:31N 34°08' E 135°07'0 0.1
2017-Oct-16 11:00N 34°08' E 135°07'0 0.0
2017-Oct-16 10:30N 34°08' E 135°07'0 0.0
2017-Oct-16 10:00N 34°08' E 135°07'2 3.2
2017-Oct-16 09:30N 34°08' E 135°05'22111.7
2017-Oct-15 14:40N 34°55' E 139°27'913.0
2017-Oct-15 14:00N 35°01' E 139°34'715.0
2017-Oct-15 13:30N 35°06' E 139°41'815.0
2017-Oct-15 13:00N 35°12' E 139°46'612.8
2017-Oct-15 12:30N 35°19' E 139°44'613.0
2017-Oct-15 12:01N 35°25' E 139°43'611.6
2017-Oct-15 11:29N 35°30' E 139°47'0 0.6
2017-Oct-15 11:00N 35°31' E 139°47'0 0.0
2017-Oct-15 10:25N 35°31' E 139°47'0 0.0
2017-Oct-15 09:58N 35°31' E 139°47'0 0.0
2017-Oct-15 09:25N 35°31' E 139°47'0 0.0
2017-Oct-15 08:55N 35°31' E 139°47'0 0.0
2017-Oct-15 08:25N 35°31' E 139°47'0 0.0
2017-Oct-15 07:55N 35°31' E 139°47'0 0.0
2017-Oct-15 07:28N 35°31' E 139°47'0 0.0
2017-Oct-15 06:58N 35°31' E 139°47'0 0.0
2017-Oct-15 06:28N 35°31' E 139°47'0 0.0
2017-Oct-15 05:52N 35°31' E 139°47'0 0.0
2017-Oct-15 05:19N 35°31' E 139°47'0 0.0
2017-Oct-15 04:37N 35°31' E 139°47'0 0.0
2017-Oct-15 04:25N 35°31' E 139°47'0 0.0
2017-Oct-15 03:55N 35°31' E 139°47'0 0.0
2017-Oct-15 03:25N 35°31' E 139°47'0 0.0
2017-Oct-15 02:58N 35°31' E 139°47'0 0.0
2017-Oct-15 02:30N 35°31' E 139°47'0 0.0
2017-Oct-15 02:00N 35°31' E 139°47'0 0.0
2017-Oct-15 01:30N 35°31' E 139°47'0 0.0
2017-Oct-15 01:00N 35°31' E 139°47'0 0.0
2017-Oct-15 00:30N 35°31' E 139°47'0 0.0
2017-Oct-15 00:00N 35°31' E 139°47'0 0.0
2017-Oct-14 23:30N 35°31' E 139°47'0 0.0
2017-Oct-14 23:00N 35°31' E 139°47'0 0.0
2017-Oct-14 22:30N 35°31' E 139°47'1 1.5
2017-Oct-14 22:00N 35°30' E 139°46'3 5.4
2017-Oct-14 21:30N 35°29' E 139°43'4 7.9
2017-Oct-14 21:00N 35°26' E 139°45'2 3.2
2017-Oct-14 20:30N 35°24' E 139°45'0 0.0
2017-Oct-14 19:58N 35°24' E 139°45'0 0.0
2017-Oct-14 19:19N 35°24' E 139°45'0 0.0
2017-Oct-14 18:58N 35°24' E 139°45'0 0.0
2017-Oct-14 18:25N 35°24' E 139°45'0 0.0
2017-Oct-14 17:55N 35°24' E 139°45'0 0.0
2017-Oct-14 17:28N 35°24' E 139°45'0 0.0
2017-Oct-14 16:58N 35°24' E 139°45'0 0.0
2017-Oct-14 16:28N 35°24' E 139°45'0 0.1
2017-Oct-14 15:58N 35°24' E 139°45'0 0.1
2017-Oct-14 15:25N 35°24' E 139°45'0 0.0
2017-Oct-14 14:58N 35°24' E 139°45'0 0.0
2017-Oct-14 14:19N 35°24' E 139°45'0 0.0
2017-Oct-14 13:58N 35°24' E 139°45'0 0.0
2017-Oct-14 13:28N 35°24' E 139°45'0 0.0
2017-Oct-14 12:58N 35°24' E 139°45'1 1.1
2017-Oct-14 12:30N 35°24' E 139°45'612.0
2017-Oct-14 12:00N 35°30' E 139°47'2 3.7
2017-Oct-14 11:30N 35°30' E 139°45'0 0.0
2017-Oct-14 11:00N 35°30' E 139°45'0 0.0
2017-Oct-14 10:30N 35°30' E 139°45'0 0.0
2017-Oct-14 10:00N 35°30' E 139°45'0 0.0
2017-Oct-14 09:27N 35°30' E 139°45'0 0.0
2017-Oct-14 08:57N 35°30' E 139°45'0 0.0
2017-Oct-14 08:30N 35°30' E 139°45'0 0.0
2017-Oct-14 08:00N 35°30' E 139°45'0 0.0
2017-Oct-14 07:30N 35°30' E 139°45'0 0.1
2017-Oct-14 07:00N 35°30' E 139°45'2 3.4
2017-Oct-14 06:30N 35°29' E 139°43'2 4.6
2017-Oct-14 06:00N 35°27' E 139°44'4 8.0
2017-Oct-14 05:30N 35°29' E 139°49'510.4
2017-Oct-14 05:00N 35°30' E 139°55'2 0.2
2017-Oct-13 21:50N 35°32' E 139°56'2 0.2
2017-Oct-13 11:03N 35°33' E 139°54'211.4
2017-Oct-13 10:53N 35°32' E 139°52'512.4
2017-Oct-13 10:30N 35°30' E 139°46'1 1.6
2017-Oct-13 10:00N 35°30' E 139°45'0 0.0
2017-Oct-13 09:30N 35°30' E 139°45'0 0.0
2017-Oct-13 09:00N 35°30' E 139°45'0 0.0
2017-Oct-13 08:30N 35°30' E 139°45'0 0.0
2017-Oct-13 08:00N 35°30' E 139°45'0 0.0
2017-Oct-13 07:27N 35°30' E 139°45'0 0.0
2017-Oct-13 07:00N 35°30' E 139°45'0 0.0
2017-Oct-13 06:30N 35°30' E 139°45'0 0.0
2017-Oct-13 06:00N 35°30' E 139°45'2 3.7
2017-Oct-13 05:30N 35°29' E 139°43'2 4.9
2017-Oct-13 05:00N 35°27' E 139°44'3 6.0
2017-Oct-13 04:30N 35°28' E 139°47'610.7
2017-Oct-13 03:54N 35°31' E 139°54'5 0.9
2017-Oct-12 21:58N 35°29' E 140°01'5 9.3
2017-Oct-12 21:26N 35°31' E 139°55'2 0.2
2017-Oct-12 10:40N 35°33' E 139°54'0 0.3
2017-Oct-12 10:31N 35°33' E 139°54'0 0.1
2017-Oct-12 09:58N 35°33' E 139°54'0 0.0
2017-Oct-12 09:10N 35°33' E 139°54'0 0.0
2017-Oct-12 08:55N 35°33' E 139°54'0 0.0
2017-Oct-12 08:28N 35°33' E 139°54'0 0.0
2017-Oct-12 08:01N 35°33' E 139°54'6 0.1
2017-Oct-10 13:39N 35°30' E 139°48'1 3.4
2017-Oct-10 13:18N 35°31' E 139°46'0 0.0
2017-Oct-10 13:00N 35°31' E 139°46'0 0.0
2017-Oct-10 12:30N 35°31' E 139°46'0 0.0
2017-Oct-10 11:48N 35°31' E 139°46'0 0.0
2017-Oct-10 11:30N 35°31' E 139°46'0 0.0
2017-Oct-10 11:00N 35°31' E 139°46'0 0.0
2017-Oct-10 10:24N 35°31' E 139°46'0 0.0
2017-Oct-10 10:00N 35°31' E 139°46'0 0.0
2017-Oct-10 09:30N 35°31' E 139°46'0 0.0
2017-Oct-10 08:54N 35°31' E 139°46'0 0.0
2017-Oct-10 08:30N 35°31' E 139°46'0 0.0
2017-Oct-10 08:00N 35°31' E 139°46'0 0.0
2017-Oct-10 07:31N 35°31' E 139°46'0 0.0
2017-Oct-10 07:01N 35°31' E 139°46'0 0.0
2017-Oct-10 06:31N 35°31' E 139°46'0 0.0
2017-Oct-10 06:01N 35°31' E 139°46'1 2.8
2017-Oct-10 05:30N 35°30' E 139°45'3 6.5
2017-Oct-10 05:01N 35°27' E 139°43'3 5.8
2017-Oct-10 04:30N 35°26' E 139°46'4 7.2
2017-Oct-10 04:00N 35°22' E 139°45'510.4
2017-Oct-10 03:30N 35°17' E 139°45'510.6
2017-Oct-10 03:00N 35°12' E 139°47'612.5
2017-Oct-10 02:30N 35°06' E 139°45'613.0
2017-Oct-10 02:01N 35°02' E 139°39'713.9
2017-Oct-10 01:29N 34°57' E 139°32'  

Dump ship's entire track history